Time;durP1;ratioP1;P1;durP2;ratioP2;P2;SDS_P1;SDS_P2;PMS_P1;PMS_P2;Temp;Humidity;BMP_temperature;BMP_pressure;BME280_temperature;BME280_humidity;BME280_pressure;Samples;Min_cycle;Max_cycle;Signal;HPM_P1;HPM_P2
2022/02/06 00:00:31;;;;;;;2.40;1.40;;;;;;;;;;5050035;28;20082;-76
2022/02/06 00:02:57;;;;;;;3.13;1.60;;;;;;;;;;5050698;28;20040;-75
2022/02/06 00:05:23;;;;;;;5.13;1.65;;;;;;;;;;5050301;28;20044;-74
2022/02/06 00:07:50;;;;;;;3.85;1.50;;;;;;;;;;5050693;28;20040;-74
2022/02/06 00:10:16;;;;;;;5.53;1.80;;;;;;;;;;5066133;28;20041;-77
2022/02/06 00:12:42;;;;;;;3.58;1.02;;;;;;;;;;5050300;28;20037;-76
2022/02/06 00:15:09;;;;;;;6.30;1.65;;;;;;;;;;5065919;28;20037;-75
2022/02/06 00:17:35;;;;;;;2.20;1.10;;;;;;;;;;5066234;28;20033;-76
2022/02/06 00:20:02;;;;;;;3.60;1.42;;;;;;;;;;5051581;28;20044;-76
2022/02/06 00:25:25;;;;;;;3.40;1.63;;;;;;;;;;5051503;28;20086;-77
2022/02/06 00:30:28;;;;;;;3.92;1.55;;;;;;;;;;5050368;28;20029;-76
2022/02/06 00:33:21;;;;;;;3.25;1.27;;;;;;;;;;5066522;28;20119;-76
2022/02/06 00:43:11;;;;;;;2.63;1.17;;;;;;;;;;5050541;28;20457;-75
2022/02/06 00:45:37;;;;;;;2.10;1.48;;;;;;;;;;5066529;28;20066;-74
2022/02/06 00:48:06;;;;;;;2.45;1.25;;;;;;;;;;5066830;28;20037;-74
2022/02/06 00:50:35;;;;;;;4.13;1.95;;;;;;;;;;5050254;28;20032;-76
2022/02/06 00:53:14;;;;;;;3.00;1.10;;;;;;;;;;5051075;28;20079;-76
2022/02/06 00:55:41;;;;;;;3.08;1.17;;;;;;;;;;5066306;28;20029;-75
2022/02/06 00:58:09;;;;;;;2.22;1.23;;;;;;;;;;5050591;28;20029;-74
2022/02/06 01:00:38;;;;;;;2.65;1.02;;;;;;;;;;5050861;28;20056;-76
2022/02/06 01:03:07;;;;;;;4.70;1.42;;;;;;;;;;5050880;28;20048;-75
2022/02/06 01:05:33;;;;;;;3.08;1.35;;;;;;;;;;5068970;28;20615;-76
2022/02/06 01:07:59;;;;;;;3.17;1.42;;;;;;;;;;5054038;28;20425;-76
2022/02/06 01:10:27;;;;;;;2.88;1.35;;;;;;;;;;5071191;28;20966;-76
2022/02/06 01:13:01;;;;;;;3.92;1.63;;;;;;;;;;5070345;28;20052;-75
2022/02/06 01:15:33;;;;;;;1.90;0.80;;;;;;;;;;5054880;28;20124;-76
2022/02/06 01:18:04;;;;;;;4.20;1.10;;;;;;;;;;5070844;28;20021;-77
2022/02/06 01:20:36;;;;;;;4.32;1.40;;;;;;;;;;5054325;28;20025;-76
2022/02/06 01:23:11;;;;;;;2.67;0.82;;;;;;;;;;5054749;28;20483;-75
2022/02/06 01:25:49;;;;;;;1.52;0.70;;;;;;;;;;5068950;28;20086;-77
2022/02/06 01:28:20;;;;;;;2.45;1.52;;;;;;;;;;5054298;28;20128;-75
2022/02/06 01:30:57;;;;;;;2.85;1.23;;;;;;;;;;5054019;28;20117;-76
2022/02/06 01:33:31;;;;;;;3.17;1.63;;;;;;;;;;5053748;28;20032;-76
2022/02/06 01:38:36;;;;;;;2.35;1.20;;;;;;;;;;5054612;28;20159;-76
2022/02/06 01:41:12;;;;;;;3.40;1.10;;;;;;;;;;5069519;28;20036;-74
2022/02/06 01:43:44;;;;;;;2.45;1.20;;;;;;;;;;5054004;28;20037;-77
2022/02/06 02:05:38;;;;;;;2.08;0.88;;;;;;;;;;5052979;28;20360;-75
2022/02/06 02:16:13;;;;;;;1.77;0.98;;;;;;;;;;5052982;28;20048;-74
2022/02/06 02:45:22;;;;;;;1.77;0.80;;;;;;;;;;5053295;28;20034;-76
2022/02/06 02:47:59;;;;;;;1.92;1.15;;;;;;;;;;5052538;28;20020;-75
2022/02/06 02:50:26;;;;;;;2.75;1.40;;;;;;;;;;5052812;28;20021;-76
2022/02/06 03:00:55;;;;;;;2.75;0.95;;;;;;;;;;5053359;28;20606;-76
2022/02/06 03:03:28;;;;;;;2.05;0.95;;;;;;;;;;5050840;28;20029;-74
2022/02/06 03:05:56;;;;;;;3.08;0.95;;;;;;;;;;5052442;28;20036;-76
2022/02/06 03:08:23;;;;;;;0.82;0.40;;;;;;;;;;5051830;28;20036;-75
2022/02/06 03:10:54;;;;;;;2.03;1.00;;;;;;;;;;5069101;28;20040;-74
2022/02/06 03:13:23;;;;;;;1.50;0.73;;;;;;;;;;5068200;28;20090;-75
2022/02/06 03:18:27;;;;;;;2.38;0.70;;;;;;;;;;5052318;28;20032;-75
2022/02/06 03:20:56;;;;;;;1.85;0.65;;;;;;;;;;5052053;28;20098;-76
2022/02/06 03:23:23;;;;;;;2.72;1.20;;;;;;;;;;5066827;28;20059;-76
2022/02/06 03:25:53;;;;;;;2.08;1.40;;;;;;;;;;5051356;28;20029;-74
2022/02/06 03:28:23;;;;;;;1.20;0.50;;;;;;;;;;5066640;28;20048;-75
2022/02/06 03:30:49;;;;;;;4.07;0.93;;;;;;;;;;5068199;28;20079;-76
2022/02/06 03:33:16;;;;;;;2.28;0.90;;;;;;;;;;5052231;28;20150;-76
2022/02/06 03:35:42;;;;;;;1.75;0.90;;;;;;;;;;5050767;28;20121;-76
2022/02/06 03:38:10;;;;;;;1.33;0.68;;;;;;;;;;5051519;28;20457;-73
2022/02/06 03:40:51;;;;;;;0.68;0.40;;;;;;;;;;5066912;28;21676;-76
2022/02/06 03:43:22;;;;;;;0.93;0.60;;;;;;;;;;5052345;28;20035;-75
2022/02/06 03:45:58;;;;;;;0.93;0.73;;;;;;;;;;5052281;28;20032;-76
2022/02/06 03:48:34;;;;;;;2.35;0.82;;;;;;;;;;5051222;28;20029;-76
2022/02/06 03:51:06;;;;;;;3.75;0.70;;;;;;;;;;5051121;28;20028;-76
2022/02/06 03:53:32;;;;;;;1.42;0.68;;;;;;;;;;5052085;28;20047;-75
2022/02/06 03:56:00;;;;;;;1.55;0.75;;;;;;;;;;5051110;28;20048;-75
2022/02/06 03:58:28;;;;;;;1.27;0.65;;;;;;;;;;5050448;28;20067;-76
2022/02/06 04:00:54;;;;;;;2.88;1.40;;;;;;;;;;5051092;28;20032;-75
2022/02/06 04:03:23;;;;;;;1.73;0.80;;;;;;;;;;5067261;28;20026;-77
2022/02/06 04:05:49;;;;;;;1.27;0.85;;;;;;;;;;5051523;28;20025;-76
2022/02/06 04:08:17;;;;;;;0.90;0.57;;;;;;;;;;5066695;28;20024;-76
2022/02/06 04:10:49;;;;;;;1.35;0.60;;;;;;;;;;5050823;28;20593;-77
2022/02/06 04:13:19;;;;;;;1.73;0.73;;;;;;;;;;5051158;28;20094;-74
2022/02/06 04:15:47;;;;;;;0.82;0.45;;;;;;;;;;5050937;28;20044;-74
2022/02/06 04:18:23;;;;;;;1.40;0.73;;;;;;;;;;5051439;28;20048;-77
2022/02/06 04:20:49;;;;;;;1.52;0.80;;;;;;;;;;5051503;28;20036;-78
2022/02/06 04:23:15;;;;;;;2.97;0.80;;;;;;;;;;5052265;28;20029;-73
2022/02/06 04:25:42;;;;;;;1.85;1.17;;;;;;;;;;5067644;28;20086;-76
2022/02/06 04:28:08;;;;;;;4.05;0.68;;;;;;;;;;5050683;28;20036;-78
2022/02/06 04:30:34;;;;;;;1.73;0.52;;;;;;;;;;5050768;28;20044;-75
2022/02/06 04:33:00;;;;;;;2.45;0.90;;;;;;;;;;5066439;28;20033;-77
2022/02/06 04:35:32;;;;;;;1.73;0.70;;;;;;;;;;5066207;28;20488;-76
2022/02/06 04:38:34;;;;;;;1.48;0.82;;;;;;;;;;5051677;28;20356;-74
2022/02/06 04:41:17;;;;;;;1.23;1.13;;;;;;;;;;5050695;28;20048;-75
2022/02/06 04:47:03;;;;;;;1.75;0.70;;;;;;;;;;5050455;28;20040;-76
2022/02/06 05:22:01;;;;;;;1.20;0.85;;;;;;;;;;5050192;28;20032;-77
2022/02/06 05:30:08;;;;;;;1.02;0.50;;;;;;;;;;5028052;28;20048;-75
2022/02/06 05:35:01;;;;;;;1.67;0.43;;;;;;;;;;5027835;28;20484;-75
2022/02/06 05:37:31;;;;;;;0.80;0.70;;;;;;;;;;5027551;28;20041;-77
2022/02/06 05:39:58;;;;;;;1.58;0.50;;;;;;;;;;5028388;28;20028;-74
2022/02/06 05:42:26;;;;;;;1.27;0.70;;;;;;;;;;5027388;28;20076;-77
2022/02/06 05:44:56;;;;;;;1.17;0.70;;;;;;;;;;5027937;28;20045;-75
2022/02/06 05:47:25;;;;;;;2.63;0.93;;;;;;;;;;5027703;28;20143;-74
2022/02/06 05:49:54;;;;;;;1.20;0.52;;;;;;;;;;5028160;28;20034;-76
2022/02/06 05:52:21;;;;;;;0.40;0.40;;;;;;;;;;5030567;28;20042;-77
2022/02/06 05:54:48;;;;;;;1.23;0.60;;;;;;;;;;5031839;28;20452;-77
2022/02/06 05:57:14;;;;;;;0.60;0.50;;;;;;;;;;5034875;28;20104;-77
2022/02/06 05:59:41;;;;;;;0.95;0.50;;;;;;;;;;5053660;28;20032;-74
2022/02/06 06:02:07;;;;;;;1.00;0.52;;;;;;;;;;5053879;28;20041;-77
2022/02/06 06:04:33;;;;;;;2.53;1.08;;;;;;;;;;5054782;28;20101;-77
2022/02/06 06:07:00;;;;;;;0.68;0.40;;;;;;;;;;5053910;28;20063;-75
2022/02/06 06:09:26;;;;;;;1.30;0.63;;;;;;;;;;5053610;28;20032;-73
2022/02/06 06:11:52;;;;;;;1.85;0.35;;;;;;;;;;5053821;28;21797;-76
2022/02/06 06:14:18;;;;;;;1.35;0.63;;;;;;;;;;5054468;28;20033;-76
2022/02/06 06:16:44;;;;;;;0.93;0.70;;;;;;;;;;5052862;28;20033;-78
2022/02/06 06:19:12;;;;;;;1.13;0.85;;;;;;;;;;5053356;28;20032;-76
2022/02/06 06:21:42;;;;;;;4.35;0.57;;;;;;;;;;5069688;28;20364;-76
2022/02/06 06:24:08;;;;;;;0.85;0.52;;;;;;;;;;5068806;28;20661;-76
2022/02/06 06:26:39;;;;;;;1.88;0.70;;;;;;;;;;5053949;28;20035;-78
2022/02/06 06:29:05;;;;;;;0.70;0.47;;;;;;;;;;5052934;28;20032;-77
2022/02/06 06:31:32;;;;;;;1.63;0.60;;;;;;;;;;5053570;28;20044;-78
2022/02/06 06:33:58;;;;;;;0.63;0.32;;;;;;;;;;5053055;28;20031;-77
2022/02/06 06:36:24;;;;;;;0.60;0.22;;;;;;;;;;5052930;28;20029;-76
2022/02/06 06:38:52;;;;;;;1.48;0.55;;;;;;;;;;5054035;28;20991;-83
2022/02/06 06:41:20;;;;;;;1.27;0.40;;;;;;;;;;5052636;28;20056;-76
2022/02/06 06:43:46;;;;;;;0.95;0.60;;;;;;;;;;5053413;28;20024;-77
2022/02/06 06:46:13;;;;;;;0.90;0.77;;;;;;;;;;5052309;28;20032;-77
2022/02/06 06:48:39;;;;;;;1.45;0.68;;;;;;;;;;5068557;28;20037;-77
2022/02/06 06:51:06;;;;;;;1.88;0.80;;;;;;;;;;5051862;28;20024;-75
2022/02/06 06:53:37;;;;;;;0.77;0.40;;;;;;;;;;5067507;28;20028;-77
2022/02/06 06:56:09;;;;;;;1.00;0.50;;;;;;;;;;5052889;28;20165;-77
2022/02/06 06:58:43;;;;;;;1.13;0.50;;;;;;;;;;5052243;28;20346;-77
2022/02/06 07:01:31;;;;;;;1.70;0.60;;;;;;;;;;5053255;28;20881;-77
2022/02/06 07:03:55;;;;;;;0.80;0.40;;;;;;;;;;5053272;28;20037;-75
2022/02/06 07:06:21;;;;;;;0.80;0.40;;;;;;;;;;5068132;28;20044;-77
2022/02/06 07:08:47;;;;;;;0.80;0.47;;;;;;;;;;5053671;28;20068;-77
2022/02/06 07:11:14;;;;;;;2.92;0.40;;;;;;;;;;5068077;28;20039;-76
2022/02/06 07:13:40;;;;;;;0.40;0.40;;;;;;;;;;5068160;28;20086;-76
2022/02/06 07:16:06;;;;;;;0.85;0.38;;;;;;;;;;5051763;28;20467;-77
2022/02/06 07:18:32;;;;;;;0.80;0.30;;;;;;;;;;5051197;28;20036;-74
2022/02/06 07:20:59;;;;;;;0.50;0.35;;;;;;;;;;5051811;28;20033;-73
2022/02/06 07:23:25;;;;;;;0.57;0.30;;;;;;;;;;5051662;28;20033;-77
2022/02/06 07:25:53;;;;;;;0.85;0.55;;;;;;;;;;5067947;28;20173;-76
2022/02/06 07:28:20;;;;;;;1.77;0.60;;;;;;;;;;5051344;28;20024;-77
2022/02/06 07:30:47;;;;;;;0.77;0.40;;;;;;;;;;5051894;28;20033;-77
2022/02/06 07:33:19;;;;;;;1.92;0.50;;;;;;;;;;5067462;28;20197;-76
2022/02/06 07:35:46;;;;;;;1.52;0.60;;;;;;;;;;5051373;28;20147;-77
2022/02/06 07:38:14;;;;;;;0.70;0.57;;;;;;;;;;5068074;28;20021;-74
2022/02/06 07:40:43;;;;;;;1.17;0.63;;;;;;;;;;5051414;28;20082;-76
2022/02/06 07:43:09;;;;;;;0.57;0.38;;;;;;;;;;5067149;28;20043;-75
2022/02/06 07:45:39;;;;;;;2.25;0.82;;;;;;;;;;5051647;28;20192;-73
2022/02/06 07:48:09;;;;;;;0.55;0.32;;;;;;;;;;5051651;28;20162;-75
2022/02/06 07:50:38;;;;;;;0.80;0.50;;;;;;;;;;5051921;28;20102;-75
2022/02/06 07:53:04;;;;;;;1.92;0.60;;;;;;;;;;5052704;28;20032;-77
2022/02/06 07:55:30;;;;;;;1.35;0.50;;;;;;;;;;5067035;28;20751;-76
2022/02/06 07:57:58;;;;;;;0.60;0.45;;;;;;;;;;5051616;28;20025;-73
2022/02/06 08:00:24;;;;;;;1.00;0.40;;;;;;;;;;5050919;28;20025;-75
2022/02/06 08:02:50;;;;;;;0.60;0.50;;;;;;;;;;5051637;28;20366;-76
2022/02/06 08:05:18;;;;;;;0.70;0.30;;;;;;;;;;5066404;28;20028;-75
2022/02/06 08:07:47;;;;;;;1.33;0.60;;;;;;;;;;5067279;28;20032;-78
2022/02/06 08:10:13;;;;;;;0.40;0.30;;;;;;;;;;5066619;28;20060;-76
2022/02/06 08:12:50;;;;;;;0.80;0.60;;;;;;;;;;5066592;28;20628;-74
2022/02/06 08:15:16;;;;;;;1.05;0.43;;;;;;;;;;5051236;28;20021;-75
2022/02/06 08:17:45;;;;;;;0.20;0.20;;;;;;;;;;5051454;28;20028;-76
2022/02/06 08:20:15;;;;;;;1.25;0.32;;;;;;;;;;5066956;28;20028;-76
2022/02/06 08:22:42;;;;;;;0.90;0.47;;;;;;;;;;5051293;28;20094;-76
2022/02/06 08:25:14;;;;;;;0.93;0.47;;;;;;;;;;5050635;28;20091;-76
2022/02/06 08:27:41;;;;;;;2.20;0.52;;;;;;;;;;5065972;28;20029;-76
2022/02/06 08:30:08;;;;;;;0.63;0.40;;;;;;;;;;5051367;28;20031;-75
2022/02/06 08:32:34;;;;;;;0.95;0.50;;;;;;;;;;5050345;28;20029;-77
2022/02/06 08:35:03;;;;;;;1.02;0.45;;;;;;;;;;5066086;28;20113;-75
2022/02/06 08:37:29;;;;;;;0.20;0.20;;;;;;;;;;5067233;28;20094;-75
2022/02/06 08:39:56;;;;;;;0.70;0.63;;;;;;;;;;5067403;28;20060;-75
2022/02/06 08:42:22;;;;;;;1.00;0.50;;;;;;;;;;5066328;28;20676;-77
2022/02/06 08:44:50;;;;;;;0.73;0.40;;;;;;;;;;5050765;28;20460;-77
2022/02/06 08:47:17;;;;;;;0.68;0.25;;;;;;;;;;5067576;28;20045;-75
2022/02/06 08:49:46;;;;;;;0.50;0.40;;;;;;;;;;5066006;28;20040;-77
2022/02/06 08:52:13;;;;;;;0.50;0.30;;;;;;;;;;5051060;28;20361;-75
2022/02/06 08:54:39;;;;;;;0.40;0.30;;;;;;;;;;5050663;28;20036;-74
2022/02/06 08:57:13;;;;;;;0.70;0.50;;;;;;;;;;5066573;28;20426;-76
2022/02/06 08:59:40;;;;;;;4.03;0.75;;;;;;;;;;5050314;28;20037;-75
2022/02/06 09:02:06;;;;;;;1.45;0.65;;;;;;;;;;5066428;28;20028;-76
2022/02/06 09:04:32;;;;;;;1.67;0.55;;;;;;;;;;5066152;28;20679;-78
2022/02/06 09:07:01;;;;;;;1.48;0.40;;;;;;;;;;5049839;28;20090;-77
2022/02/06 09:09:28;;;;;;;0.82;0.52;;;;;;;;;;5050099;28;20029;-75
2022/02/06 09:11:57;;;;;;;0.43;0.38;;;;;;;;;;5051459;28;20082;-75
2022/02/06 09:14:24;;;;;;;0.82;0.43;;;;;;;;;;5050343;28;20060;-80
2022/02/06 09:16:54;;;;;;;0.90;0.47;;;;;;;;;;5066968;28;20052;-78
2022/02/06 09:19:20;;;;;;;0.77;0.50;;;;;;;;;;5065856;28;20029;-77
2022/02/06 09:21:46;;;;;;;1.77;0.57;;;;;;;;;;5049853;28;20025;-76
2022/02/06 09:24:13;;;;;;;2.05;0.60;;;;;;;;;;5050930;28;20381;-75
2022/02/06 09:26:40;;;;;;;0.38;0.28;;;;;;;;;;5053104;28;20041;-77
2022/02/06 09:29:06;;;;;;;1.10;0.57;;;;;;;;;;5054491;28;21635;-77
2022/02/06 09:31:32;;;;;;;1.50;0.82;;;;;;;;;;5069218;28;20032;-77
2022/02/06 09:36:27;;;;;;;1.02;0.60;;;;;;;;;;5054996;28;20029;-76
2022/02/06 09:38:53;;;;;;;0.43;0.40;;;;;;;;;;5069617;28;20500;-78
2022/02/06 09:41:22;;;;;;;1.08;0.57;;;;;;;;;;5069360;28;20126;-74
2022/02/06 09:43:49;;;;;;;0.55;0.40;;;;;;;;;;5069673;28;20053;-77
2022/02/06 09:46:15;;;;;;;0.60;0.35;;;;;;;;;;5053633;28;20450;-74
2022/02/06 09:48:43;;;;;;;1.38;0.35;;;;;;;;;;5069430;28;20037;-75
2022/02/06 09:51:10;;;;;;;0.57;0.38;;;;;;;;;;5054622;28;20056;-76
2022/02/06 09:53:37;;;;;;;0.82;0.40;;;;;;;;;;5053147;28;20032;-83
2022/02/06 09:56:08;;;;;;;1.33;0.40;;;;;;;;;;5053825;28;20131;-80
2022/02/06 10:01:14;;;;;;;0.47;0.40;;;;;;;;;;5053614;28;20035;-79
2022/02/06 10:03:45;;;;;;;0.55;0.47;;;;;;;;;;5053080;28;20047;-76
2022/02/06 10:06:15;;;;;;;1.35;0.68;;;;;;;;;;5052782;28;20029;-76
2022/02/06 10:08:44;;;;;;;3.30;1.60;;;;;;;;;;5069414;28;20028;-80
2022/02/06 10:11:14;;;;;;;0.38;0.30;;;;;;;;;;5053315;28;20032;-80
2022/02/06 10:13:44;;;;;;;3.55;0.28;;;;;;;;;;5069517;28;20124;-79
2022/02/06 10:16:12;;;;;;;0.68;0.52;;;;;;;;;;5052255;28;21623;-78
2022/02/06 10:18:41;;;;;;;0.85;0.65;;;;;;;;;;5069413;28;20036;-77
2022/02/06 10:21:09;;;;;;;0.60;0.40;;;;;;;;;;5054734;28;20016;-75
2022/02/06 10:26:24;;;;;;;0.80;0.60;;;;;;;;;;5053120;28;20044;-76
2022/02/06 10:29:09;;;;;;;2.67;0.40;;;;;;;;;;5068247;28;20465;-77
2022/02/06 10:31:35;;;;;;;0.55;0.43;;;;;;;;;;5068486;28;21685;-76
2022/02/06 10:34:02;;;;;;;1.00;0.50;;;;;;;;;;5068345;28;20040;-75
2022/02/06 10:36:36;;;;;;;0.98;0.70;;;;;;;;;;5068112;28;20111;-77
2022/02/06 10:39:06;;;;;;;0.50;0.40;;;;;;;;;;5067363;28;20729;-79
2022/02/06 10:41:34;;;;;;;0.93;0.60;;;;;;;;;;5043674;28;20124;-78
2022/02/06 10:44:09;;;;;;;1.00;0.45;;;;;;;;;;5054391;28;20154;-78
2022/02/06 10:46:44;;;;;;;0.43;0.32;;;;;;;;;;5052373;28;20120;-77
2022/02/06 10:49:12;;;;;;;1.38;0.35;;;;;;;;;;5069616;28;20043;-75
2022/02/06 10:51:41;;;;;;;0.20;0.20;;;;;;;;;;5052215;28;20032;-77
2022/02/06 10:54:10;;;;;;;0.50;0.32;;;;;;;;;;5067762;28;20047;-77
2022/02/06 10:56:40;;;;;;;0.90;0.43;;;;;;;;;;5068169;28;20025;-76
2022/02/06 10:59:08;;;;;;;0.50;0.40;;;;;;;;;;5053220;28;20124;-77
2022/02/06 11:01:38;;;;;;;1.67;0.73;;;;;;;;;;5068394;28;20033;-77
2022/02/06 11:06:48;;;;;;;1.00;0.75;;;;;;;;;;5053047;28;20092;-77
2022/02/06 11:09:25;;;;;;;0.43;0.20;;;;;;;;;;5068078;28;21693;-76
2022/02/06 11:11:51;;;;;;;3.15;0.30;;;;;;;;;;5067895;28;20082;-78
2022/02/06 11:14:21;;;;;;;1.85;0.55;;;;;;;;;;5068219;28;20474;-77
2022/02/06 11:16:49;;;;;;;0.65;0.35;;;;;;;;;;5068900;28;20020;-78
2022/02/06 11:19:20;;;;;;;0.50;0.20;;;;;;;;;;5069090;28;20055;-78
2022/02/06 11:22:05;;;;;;;0.60;0.20;;;;;;;;;;5068502;28;20118;-78
2022/02/06 11:24:36;;;;;;;0.93;0.30;;;;;;;;;;5066820;28;20036;-77
2022/02/06 11:27:02;;;;;;;0.37;0.20;;;;;;;;;;5051589;28;20020;-77
2022/02/06 11:29:31;;;;;;;0.52;0.20;;;;;;;;;;5050798;28;20143;-75
2022/02/06 11:31:57;;;;;;;0.40;0.30;;;;;;;;;;5067830;28;20033;-76
2022/02/06 11:34:23;;;;;;;0.57;0.30;;;;;;;;;;5051735;28;20033;-77
2022/02/06 11:45:43;;;;;;;1.33;0.65;;;;;;;;;;5051743;28;20044;-75
2022/02/06 11:48:13;;;;;;;0.47;0.30;;;;;;;;;;5051380;28;20150;-75
2022/02/06 11:50:48;;;;;;;0.95;0.47;;;;;;;;;;5051033;28;20028;-75
2022/02/06 11:53:27;;;;;;;0.30;0.20;;;;;;;;;;5050387;28;20448;-75
2022/02/06 11:55:57;;;;;;;3.85;0.57;;;;;;;;;;5066365;28;20032;-76
2022/02/06 11:58:26;;;;;;;0.40;0.20;;;;;;;;;;5051122;28;20179;-76
2022/02/06 12:01:09;;;;;;;2.05;0.73;;;;;;;;;;5050461;28;20024;-77
2022/02/06 12:03:47;;;;;;;0.45;0.28;;;;;;;;;;5051279;28;20033;-76
2022/02/06 12:06:14;;;;;;;1.30;0.85;;;;;;;;;;5050773;28;20570;-79
2022/02/06 12:08:44;;;;;;;0.68;0.20;;;;;;;;;;5067701;28;20384;-75
2022/02/06 12:11:11;;;;;;;0.10;0.10;;;;;;;;;;5066729;28;20025;-77
2022/02/06 12:13:38;;;;;;;0.90;0.43;;;;;;;;;;5065900;28;20040;-76
2022/02/06 12:16:06;;;;;;;0.75;0.20;;;;;;;;;;5050106;28;20072;-77
2022/02/06 12:18:36;;;;;;;0.32;0.20;;;;;;;;;;5066247;28;20017;-78
2022/02/06 12:21:12;;;;;;;3.10;0.47;;;;;;;;;;5050672;28;20027;-76
2022/02/06 12:23:51;;;;;;;1.10;0.40;;;;;;;;;;5065865;28;20061;-77
2022/02/06 12:26:27;;;;;;;1.42;0.60;;;;;;;;;;5051618;28;20036;-76
2022/02/06 12:29:06;;;;;;;1.17;0.40;;;;;;;;;;5051398;28;20021;-77
2022/02/06 12:31:33;;;;;;;1.02;0.30;;;;;;;;;;5065973;28;20036;-76
2022/02/06 12:39:28;;;;;;;0.40;0.25;;;;;;;;;;5049571;28;20051;-77
2022/02/06 12:41:57;;;;;;;0.20;0.20;;;;;;;;;;5050061;28;20028;-77
2022/02/06 12:44:24;;;;;;;0.38;0.28;;;;;;;;;;5049880;28;20033;-77
2022/02/06 12:46:53;;;;;;;1.23;0.88;;;;;;;;;;5049757;28;20020;-77
2022/02/06 12:49:27;;;;;;;0.63;0.30;;;;;;;;;;5050106;28;20053;-78
2022/02/06 12:51:56;;;;;;;1.65;0.30;;;;;;;;;;5050603;28;20052;-77
2022/02/06 12:54:23;;;;;;;0.50;0.20;;;;;;;;;;5066423;28;20056;-78
2022/02/06 12:56:49;;;;;;;0.20;0.10;;;;;;;;;;5065895;28;20029;-77
2022/02/06 12:59:21;;;;;;;0.25;0.20;;;;;;;;;;5065365;28;20063;-75
2022/02/06 13:01:50;;;;;;;0.20;0.10;;;;;;;;;;5069667;28;21751;-78
2022/02/06 13:04:17;;;;;;;0.25;0.20;;;;;;;;;;5070863;28;20037;-78
2022/02/06 13:06:44;;;;;;;0.75;0.20;;;;;;;;;;5056030;28;20025;-78
2022/02/06 13:09:28;;;;;;;0.60;0.38;;;;;;;;;;5070210;28;20082;-78
2022/02/06 13:12:04;;;;;;;0.28;0.20;;;;;;;;;;5055282;28;20041;-77
2022/02/06 13:15:04;;;;;;;0.30;0.22;;;;;;;;;;5053833;28;20032;-78
2022/02/06 13:20:28;;;;;;;0.80;0.55;;;;;;;;;;5054989;28;21741;-77
2022/02/06 13:23:16;;;;;;;0.50;0.20;;;;;;;;;;5070042;28;20062;-78
2022/02/06 13:25:55;;;;;;;0.30;0.20;;;;;;;;;;5069304;28;20025;-77
2022/02/06 13:33:31;;;;;;;0.50;0.25;;;;;;;;;;5053830;28;20059;-77
2022/02/06 13:36:12;;;;;;;0.98;0.20;;;;;;;;;;5053713;28;20063;-77
2022/02/06 13:38:42;;;;;;;1.55;0.63;;;;;;;;;;5070970;28;20035;-77
2022/02/06 13:41:12;;;;;;;0.32;0.22;;;;;;;;;;5054460;28;20041;-77
2022/02/06 13:43:39;;;;;;;0.80;0.25;;;;;;;;;;5054036;28;20044;-77
2022/02/06 13:46:12;;;;;;;0.40;0.20;;;;;;;;;;5070000;28;20029;-76
2022/02/06 13:48:38;;;;;;;0.35;0.30;;;;;;;;;;5069374;28;20028;-76
2022/02/06 13:51:07;;;;;;;0.22;0.20;;;;;;;;;;5068332;28;20036;-77
2022/02/06 13:53:35;;;;;;;0.10;0.10;;;;;;;;;;5068841;28;20113;-77
2022/02/06 13:56:04;;;;;;;0.35;0.10;;;;;;;;;;5069050;28;20048;-76
2022/02/06 13:58:31;;;;;;;0.95;0.35;;;;;;;;;;5052942;28;20529;-78
2022/02/06 14:00:57;;;;;;;0.80;0.38;;;;;;;;;;5069856;28;20360;-76
2022/02/06 14:03:24;;;;;;;0.85;0.25;;;;;;;;;;5053646;28;20123;-77
2022/02/06 14:05:53;;;;;;;0.55;0.22;;;;;;;;;;5068171;28;20097;-76
2022/02/06 14:08:21;;;;;;;0.20;0.20;;;;;;;;;;5051023;28;20036;-78
2022/02/06 14:11:11;;;;;;;0.17;0.10;;;;;;;;;;5053316;28;20043;-78
2022/02/06 14:13:37;;;;;;;0.75;0.25;;;;;;;;;;5068302;28;20036;-78
2022/02/06 14:16:14;;;;;;;0.47;0.30;;;;;;;;;;5053222;28;20079;-77
2022/02/06 14:18:51;;;;;;;0.30;0.10;;;;;;;;;;5068949;28;20059;-77
2022/02/06 14:21:18;;;;;;;0.70;0.32;;;;;;;;;;5069367;28;20029;-74
2022/02/06 14:24:01;;;;;;;0.45;0.45;;;;;;;;;;5068718;28;20032;-77
2022/02/06 14:26:27;;;;;;;0.30;0.20;;;;;;;;;;5053159;28;20070;-78
2022/02/06 14:28:53;;;;;;;0.25;0.10;;;;;;;;;;5069177;28;20049;-78
2022/02/06 14:31:33;;;;;;;0.28;0.28;;;;;;;;;;5069291;28;20028;-76
2022/02/06 14:34:15;;;;;;;0.30;0.20;;;;;;;;;;5053871;28;20025;-77
2022/02/06 14:36:43;;;;;;;0.65;0.20;;;;;;;;;;5053266;28;20031;-78
2022/02/06 14:39:09;;;;;;;0.20;0.20;;;;;;;;;;5052678;28;20025;-77
2022/02/06 14:41:48;;;;;;;1.02;0.50;;;;;;;;;;5067785;28;20463;-77
2022/02/06 14:44:15;;;;;;;1.50;0.60;;;;;;;;;;5053057;28;20032;-76
2022/02/06 14:46:44;;;;;;;0.20;0.20;;;;;;;;;;5069908;28;20033;-77
2022/02/06 14:49:17;;;;;;;0.50;0.20;;;;;;;;;;5067147;28;20063;-77
2022/02/06 14:51:43;;;;;;;0.30;0.20;;;;;;;;;;5052521;28;20480;-76
2022/02/06 14:54:10;;;;;;;0.50;0.20;;;;;;;;;;5052722;28;20031;-77
2022/02/06 14:56:39;;;;;;;1.75;0.30;;;;;;;;;;5053203;28;20016;-77
2022/02/06 14:59:07;;;;;;;0.98;0.40;;;;;;;;;;5052592;28;20089;-78
2022/02/06 15:01:34;;;;;;;0.57;0.32;;;;;;;;;;5052812;28;20029;-79
2022/02/06 15:04:00;;;;;;;0.32;0.30;;;;;;;;;;5068668;28;20028;-77
2022/02/06 15:06:26;;;;;;;0.30;0.20;;;;;;;;;;5052115;28;20345;-74
2022/02/06 15:08:53;;;;;;;1.65;0.50;;;;;;;;;;5068954;28;20807;-77
2022/02/06 15:11:19;;;;;;;0.40;0.20;;;;;;;;;;5052702;28;21686;-76
2022/02/06 15:13:45;;;;;;;0.22;0.15;;;;;;;;;;5067808;28;20052;-76
2022/02/06 15:16:16;;;;;;;0.50;0.20;;;;;;;;;;5052994;28;20033;-76
2022/02/06 15:18:52;;;;;;;0.28;0.20;;;;;;;;;;5052558;28;20021;-76
2022/02/06 15:21:18;;;;;;;0.43;0.20;;;;;;;;;;5068512;28;20036;-76
2022/02/06 15:23:44;;;;;;;1.75;0.30;;;;;;;;;;5052067;28;20056;-76
2022/02/06 15:26:10;;;;;;;0.47;0.40;;;;;;;;;;5052314;28;20142;-76
2022/02/06 15:28:36;;;;;;;0.22;0.20;;;;;;;;;;5068571;28;20369;-77
2022/02/06 15:31:03;;;;;;;1.30;0.32;;;;;;;;;;5052794;28;20342;-76
2022/02/06 15:33:29;;;;;;;0.17;0.10;;;;;;;;;;5051477;28;20163;-77
2022/02/06 15:35:55;;;;;;;2.15;0.30;;;;;;;;;;5051537;28;20028;-77
2022/02/06 15:38:22;;;;;;;1.20;0.20;;;;;;;;;;5068572;28;20410;-77
2022/02/06 15:40:49;;;;;;;0.88;0.20;;;;;;;;;;5067451;28;20025;-76
2022/02/06 15:43:15;;;;;;;0.32;0.20;;;;;;;;;;5067929;28;20381;-76
2022/02/06 15:45:41;;;;;;;0.28;0.25;;;;;;;;;;5051489;28;20119;-78
2022/02/06 15:48:07;;;;;;;0.20;0.15;;;;;;;;;;5049898;28;20642;-77
2022/02/06 15:50:34;;;;;;;0.20;0.20;;;;;;;;;;5067246;28;20044;-77
2022/02/06 15:53:00;;;;;;;0.57;0.30;;;;;;;;;;5051546;28;20029;-78
2022/02/06 15:55:26;;;;;;;0.47;0.30;;;;;;;;;;5051871;28;20033;-78
2022/02/06 15:57:52;;;;;;;0.20;0.20;;;;;;;;;;5067404;28;20025;-77
2022/02/06 16:00:18;;;;;;;1.17;0.73;;;;;;;;;;5067094;28;20095;-78
2022/02/06 16:02:44;;;;;;;0.70;0.30;;;;;;;;;;5050728;28;20021;-78
2022/02/06 16:05:12;;;;;;;0.75;0.20;;;;;;;;;;5051350;28;20029;-77
2022/02/06 16:07:42;;;;;;;0.20;0.20;;;;;;;;;;5050718;28;20029;-77
2022/02/06 16:10:09;;;;;;;1.27;0.40;;;;;;;;;;5050511;28;20603;-76
2022/02/06 16:12:38;;;;;;;0.38;0.20;;;;;;;;;;5066402;28;20029;-77
2022/02/06 16:15:04;;;;;;;0.73;0.38;;;;;;;;;;5051556;28;20694;-77
2022/02/06 16:17:31;;;;;;;0.50;0.40;;;;;;;;;;5050943;28;20028;-77
2022/02/06 16:19:59;;;;;;;0.20;0.20;;;;;;;;;;5066780;28;20052;-77
2022/02/06 16:22:25;;;;;;;0.63;0.30;;;;;;;;;;5066135;28;20053;-77
2022/02/06 16:24:51;;;;;;;1.13;0.35;;;;;;;;;;5050463;28;20021;-77
2022/02/06 16:27:17;;;;;;;1.20;0.60;;;;;;;;;;5051437;28;20029;-77
2022/02/06 16:29:44;;;;;;;0.20;0.20;;;;;;;;;;5065938;28;21253;-77
2022/02/06 16:32:17;;;;;;;0.77;0.40;;;;;;;;;;5050909;28;20033;-77
2022/02/06 16:34:44;;;;;;;0.75;0.50;;;;;;;;;;5051206;28;20047;-76
2022/02/06 16:37:11;;;;;;;0.60;0.30;;;;;;;;;;5065707;28;20037;-77
2022/02/06 16:39:41;;;;;;;0.30;0.22;;;;;;;;;;5049381;28;20020;-77
2022/02/06 16:42:07;;;;;;;0.25;0.20;;;;;;;;;;5067310;28;20033;-77
2022/02/06 16:44:34;;;;;;;0.63;0.20;;;;;;;;;;5066453;28;20098;-77
2022/02/06 16:47:00;;;;;;;0.22;0.17;;;;;;;;;;5050588;28;20048;-76
2022/02/06 16:49:28;;;;;;;0.77;0.30;;;;;;;;;;5050906;28;20239;-76
2022/02/06 16:51:55;;;;;;;0.82;0.20;;;;;;;;;;5050539;28;20048;-75
2022/02/06 16:54:21;;;;;;;0.82;0.30;;;;;;;;;;5066516;28;20083;-76
2022/02/06 16:56:47;;;;;;;0.70;0.30;;;;;;;;;;5066267;28;20107;-77
2022/02/06 16:59:17;;;;;;;2.17;0.20;;;;;;;;;;5066886;28;20043;-76
2022/02/06 17:01:43;;;;;;;0.22;0.20;;;;;;;;;;5051220;28;20092;-76
2022/02/06 17:04:09;;;;;;;0.73;0.20;;;;;;;;;;5050599;28;20060;-75
2022/02/06 17:06:35;;;;;;;0.70;0.30;;;;;;;;;;5065682;28;21655;-76
2022/02/06 17:09:03;;;;;;;0.47;0.10;;;;;;;;;;5066070;28;20119;-75
2022/02/06 17:11:30;;;;;;;0.32;0.25;;;;;;;;;;5050489;28;20025;-75
2022/02/06 17:13:58;;;;;;;0.38;0.20;;;;;;;;;;5050482;28;20060;-77
2022/02/06 17:16:24;;;;;;;0.30;0.20;;;;;;;;;;5066150;28;20033;-77
2022/02/06 17:18:52;;;;;;;0.20;0.10;;;;;;;;;;5050002;28;20104;-77
2022/02/06 17:21:19;;;;;;;0.35;0.20;;;;;;;;;;5050608;28;20025;-76
2022/02/06 17:23:45;;;;;;;0.13;0.13;;;;;;;;;;5050694;28;20098;-77
2022/02/06 17:26:11;;;;;;;0.40;0.20;;;;;;;;;;5050017;28;20029;-75
2022/02/06 17:28:37;;;;;;;0.65;0.30;;;;;;;;;;5049284;28;20033;-77
2022/02/06 17:31:06;;;;;;;0.28;0.10;;;;;;;;;;5065411;28;20032;-77